This is the latest recevied weather packets stored in our database for station/object K4YY. If no packets are shown the sender has not sent any weather packets the latest 10 day(s).
| Time | Temp. | Humidity | Pressure | Rain* | Wind** | Luminosity | Snow |
|---|---|---|---|---|---|---|---|
| 1777362018 | 19.44° C | 86% | 1018.3 hPa | 0 mm | - | 0 W/m² | - |
| 1777354218 | 19.44° C | 85% | 1019.7 hPa | 0 mm | - | 0 W/m² | - |
| 1777353018 | 18.89° C | 85% | 1019.7 hPa | 0 mm | - | 0 W/m² | - |
| 1777348818 | 18.89° C | 83% | 1019.8 hPa | 0 mm | - | 0 W/m² | - |
| 1777348219 | 18.89° C | 83% | 1019.9 hPa | 0 mm | - | 0 W/m² | - |
| 1777342220 | 18.89° C | 82% | 1020.3 hPa | 0 mm | - | 0 W/m² | - |
| 1777340420 | 18.89° C | 81% | 1020.1 hPa | 0 mm | - | 0 W/m² | - |
| 1777338620 | 18.89° C | 81% | 1020.1 hPa | 0 mm | - | 0 W/m² | - |
| 1777330220 | 19.44° C | 77% | 1019.1 hPa | 0 mm | - | 72 W/m² | - |
| 1777327218 | 20° C | 75% | 1018.8 hPa | 0 mm | - | 116 W/m² | - |
| 1777324818 | 20.56° C | 75% | 1018.6 hPa | 0 mm | - | 203 W/m² | - |
| 1777319418 | 20.56° C | 72% | 1018.8 hPa | 0 mm | - | 264 W/m² | - |
| 1777314018 | 20° C | 75% | 1018.9 hPa | 0 mm | - | 343 W/m² | - |
| 1777311018 | 21.11° C | 73% | 1019 hPa | 0 mm | - | 356 W/m² | - |
| 1777308618 | 21.11° C | 73% | 1019 hPa | 0 mm | - | 379 W/m² | - |
| 1777308018 | 21.11° C | 73% | 1019 hPa | 0 mm | - | 434 W/m² | - |
| 1777299038 | 20.56° C | 78% | 1018.2 hPa | 0 mm | - | 232 W/m² | - |
| 1777295418 | 20.56° C | 78% | 1017.3 hPa | 0 mm | - | 164 W/m² | - |
| 1777291818 | 20.56° C | 80% | 1016.8 hPa | 0 mm | - | 67 W/m² | - |
| 1777287019 | 20.56° C | 80% | 1015.6 hPa | 0 mm | - | 0 W/m² | - |
| 1777286418 | 20.56° C | 81% | 1015.5 hPa | 0 mm | - | 0 W/m² | - |
| 1777285258 | 21.11° C | 81% | 1015.1 hPa | 0 mm | - | 0 W/m² | - |
| 1777284659 | 21.11° C | 80% | 1015 hPa | 0 mm | - | 0 W/m² | - |
| 1777282859 | 21.11° C | 82% | 1014.5 hPa | 0 mm | - | 0 W/m² | - |
| 1777280459 | 21.11° C | 82% | 1014.1 hPa | 0 mm | - | 0 W/m² | - |
* Rain latest hour (hover to see other rain measurements)
** Current wind speed in m/s (hover to see current wind gust speed)